Nacogdoches, Texas
Current Conditions -  °F | °C
As of 8:55 AM on Sunday 23 Nov 2014 (Local Time) from KOCH Reporting Station
Overcast Overcast  
Wind Chill: 61°   Ceiling: 1400
Heat Index: 61°   Visibility: 8mi
Dew Point: 57°   Wind: 6mph
Humidity: 88%   Direction: 260°W
Pressure: 29.63"   Gusts: NA
Location:  31.6°N, 94.65°W
Report Text: KOCH 231455Z AUTO 26005KT 8SM FEW010 BKN014 OVC027 16/14 A2963 RMK AO1 60007 52007
Loading
Personal Weather Stations






























Interactive Weather Map New forecast layout! Learn more

10-Day Weather Forecast

Advertisements
Track Severe Weather on mobile